Time;durP1;ratioP1;P1;durP2;ratioP2;P2;SDS_P1;SDS_P2;PMS_P1;PMS_P2;Temp;Humidity;BMP_temperature;BMP_pressure;BME280_temperature;BME280_humidity;BME280_pressure;Samples;Min_cycle;Max_cycle;Signal;HPM_P1;HPM_P2
2023/12/20 00:02:05;;;;;;;5.13;4.73;;;;;;;;;;5075676;28;20435;-61
2023/12/20 00:04:32;;;;;;;5.20;4.70;;;;;;;;;;5075677;28;20447;-61
2023/12/20 00:06:59;;;;;;;5.17;4.67;;;;;;;;;;5075473;28;20542;-60
2023/12/20 00:09:26;;;;;;;4.93;4.43;;;;;;;;;;5075668;28;20447;-61
2023/12/20 00:11:52;;;;;;;5.67;5.20;;;;;;;;;;5075667;28;20477;-60
2023/12/20 00:14:21;;;;;;;4.30;4.00;;;;;;;;;;5075494;28;20550;-60
2023/12/20 00:16:48;;;;;;;4.27;3.97;;;;;;;;;;5075383;28;20447;-60
2023/12/20 00:19:14;;;;;;;4.80;4.50;;;;;;;;;;5075312;28;20538;-60
2023/12/20 00:21:42;;;;;;;4.37;4.00;;;;;;;;;;5075251;28;20885;-61
2023/12/20 00:24:09;;;;;;;4.40;4.10;;;;;;;;;;5075338;28;20466;-60
2023/12/20 00:26:36;;;;;;;4.90;4.60;;;;;;;;;;5075295;28;20526;-60
2023/12/20 00:29:03;;;;;;;4.63;4.33;;;;;;;;;;5075165;28;20530;-61
2023/12/20 00:31:31;;;;;;;4.17;3.83;;;;;;;;;;5074966;28;21035;-60
2023/12/20 00:33:58;;;;;;;4.37;4.03;;;;;;;;;;5075041;28;20447;-60
2023/12/20 00:36:25;;;;;;;6.03;4.30;;;;;;;;;;5074913;28;20577;-60
2023/12/20 00:38:52;;;;;;;4.63;4.33;;;;;;;;;;5075107;28;20802;-60
2023/12/20 00:41:19;;;;;;;4.70;4.30;;;;;;;;;;5075012;28;20447;-60
2023/12/20 00:43:46;;;;;;;4.40;4.10;;;;;;;;;;5074947;28;20496;-61
2023/12/20 00:46:13;;;;;;;4.80;4.50;;;;;;;;;;5074736;28;20958;-60
2023/12/20 00:48:42;;;;;;;4.30;4.00;;;;;;;;;;5074697;28;20450;-60
2023/12/20 00:51:09;;;;;;;4.37;4.07;;;;;;;;;;5074587;28;20501;-61
2023/12/20 00:53:36;;;;;;;3.80;3.60;;;;;;;;;;5074179;28;20939;-60
2023/12/20 00:56:03;;;;;;;4.30;4.00;;;;;;;;;;5074142;28;20558;-61
2023/12/20 00:58:30;;;;;;;4.40;4.10;;;;;;;;;;5074659;28;20439;-60
2023/12/20 01:00:58;;;;;;;4.60;4.00;;;;;;;;;;5074485;28;20439;-60
2023/12/20 01:03:25;;;;;;;3.70;3.40;;;;;;;;;;5074391;28;20444;-60
2023/12/20 01:05:53;;;;;;;4.43;4.10;;;;;;;;;;5074594;28;20447;-61
2023/12/20 01:08:20;;;;;;;3.97;3.70;;;;;;;;;;5074674;28;20538;-60
2023/12/20 01:10:47;;;;;;;3.97;3.77;;;;;;;;;;5074332;28;20541;-61
2023/12/20 01:13:14;;;;;;;4.17;3.87;;;;;;;;;;5074362;28;20487;-60
2023/12/20 01:15:41;;;;;;;3.93;3.63;;;;;;;;;;5074221;28;20447;-61
2023/12/20 01:18:08;;;;;;;4.20;3.80;;;;;;;;;;5074050;28;20454;-61
2023/12/20 01:20:36;;;;;;;3.83;3.57;;;;;;;;;;5074283;28;20439;-61
2023/12/20 01:23:04;;;;;;;3.90;3.60;;;;;;;;;;5074166;28;20439;-60
2023/12/20 01:25:31;;;;;;;4.80;4.40;;;;;;;;;;5074061;28;20878;-60
2023/12/20 01:27:58;;;;;;;4.30;4.00;;;;;;;;;;5074180;28;20530;-60
2023/12/20 01:30:25;;;;;;;4.00;3.60;;;;;;;;;;5073832;28;20435;-61
2023/12/20 01:32:52;;;;;;;3.93;3.73;;;;;;;;;;5073988;28;20487;-61
2023/12/20 01:35:19;;;;;;;3.53;3.23;;;;;;;;;;5073714;28;20982;-60
2023/12/20 01:37:46;;;;;;;4.10;3.80;;;;;;;;;;5073856;28;20526;-61
2023/12/20 01:40:14;;;;;;;3.37;3.17;;;;;;;;;;5073938;28;20528;-60
2023/12/20 01:42:41;;;;;;;4.17;3.77;;;;;;;;;;5073711;28;20807;-60
2023/12/20 01:45:08;;;;;;;3.53;3.23;;;;;;;;;;5073571;28;20526;-61
2023/12/20 01:47:36;;;;;;;4.10;3.80;;;;;;;;;;5073778;28;20835;-60
2023/12/20 01:50:03;;;;;;;4.07;3.77;;;;;;;;;;5073726;28;20870;-60
2023/12/20 01:52:30;;;;;;;3.97;3.67;;;;;;;;;;5073380;28;20992;-61
2023/12/20 01:55:02;;;;;;;4.17;3.87;;;;;;;;;;5073380;28;20471;-60
2023/12/20 01:57:30;;;;;;;3.53;3.33;;;;;;;;;;5073355;28;20530;-61
2023/12/20 01:59:58;;;;;;;3.43;3.20;;;;;;;;;;5073328;28;20449;-60
2023/12/20 02:02:25;;;;;;;3.43;3.13;;;;;;;;;;5073534;28;20447;-60
2023/12/20 02:04:52;;;;;;;3.90;3.60;;;;;;;;;;5073150;28;20534;-61
2023/12/20 02:07:20;;;;;;;3.63;3.37;;;;;;;;;;5073402;28;20911;-60
2023/12/20 02:09:47;;;;;;;3.63;3.33;;;;;;;;;;5073243;28;20542;-61
2023/12/20 02:12:14;;;;;;;3.63;3.00;;;;;;;;;;5073084;28;20566;-61
2023/12/20 02:14:42;;;;;;;3.90;3.60;;;;;;;;;;5073342;28;20476;-60
2023/12/20 02:17:09;;;;;;;3.17;2.97;;;;;;;;;;5073267;28;20848;-60
2023/12/20 02:19:36;;;;;;;3.20;3.00;;;;;;;;;;5073223;28;20439;-61
2023/12/20 02:22:11;;;;;;;3.20;2.80;;;;;;;;;;5073112;28;20534;-60
2023/12/20 02:24:38;;;;;;;4.00;3.70;;;;;;;;;;5072999;28;21049;-60
2023/12/20 02:27:07;;;;;;;2.90;2.70;;;;;;;;;;5073223;28;20530;-61
2023/12/20 02:29:34;;;;;;;3.73;3.53;;;;;;;;;;5073114;28;20439;-60
2023/12/20 02:32:01;;;;;;;3.03;2.83;;;;;;;;;;5072980;28;20482;-61
2023/12/20 02:34:28;;;;;;;2.07;1.97;;;;;;;;;;5073037;28;20451;-60
2023/12/20 02:36:55;;;;;;;2.30;2.20;;;;;;;;;;5072929;28;20447;-60
2023/12/20 02:39:23;;;;;;;3.20;3.00;;;;;;;;;;5072833;28;20447;-60
2023/12/20 02:41:50;;;;;;;2.80;2.60;;;;;;;;;;5073051;28;20871;-61
2023/12/20 02:44:17;;;;;;;2.67;2.47;;;;;;;;;;5072895;28;20453;-60
2023/12/20 02:46:44;;;;;;;3.00;2.90;;;;;;;;;;5072877;28;20450;-61
2023/12/20 02:49:11;;;;;;;2.50;2.40;;;;;;;;;;5072886;28;20504;-61
2023/12/20 02:51:38;;;;;;;2.70;2.60;;;;;;;;;;5072720;28;20443;-61
2023/12/20 02:54:06;;;;;;;2.30;2.20;;;;;;;;;;5072946;28;20482;-61
2023/12/20 02:56:34;;;;;;;2.93;2.73;;;;;;;;;;5072519;28;20471;-60
2023/12/20 02:59:01;;;;;;;2.33;2.23;;;;;;;;;;5072824;28;20474;-61
2023/12/20 03:01:28;;;;;;;3.17;2.97;;;;;;;;;;5072769;28;20529;-61
2023/12/20 03:03:55;;;;;;;3.03;2.90;;;;;;;;;;5072692;28;20959;-60
2023/12/20 03:06:21;;;;;;;2.73;2.63;;;;;;;;;;5072549;28;20859;-60
2023/12/20 03:08:48;;;;;;;3.57;3.33;;;;;;;;;;5072793;28;20491;-60
2023/12/20 03:11:15;;;;;;;3.17;2.97;;;;;;;;;;5072732;28;20452;-60
2023/12/20 03:13:43;;;;;;;3.80;3.50;;;;;;;;;;5072636;28;20483;-60
2023/12/20 03:16:10;;;;;;;4.00;3.80;;;;;;;;;;5072598;28;20903;-60
2023/12/20 03:18:37;;;;;;;3.87;3.63;;;;;;;;;;5075319;28;20443;-60
2023/12/20 03:21:04;;;;;;;3.83;3.63;;;;;;;;;;5076298;28;20530;-60
2023/12/20 03:23:32;;;;;;;4.57;4.27;;;;;;;;;;5076517;28;20447;-60
2023/12/20 03:25:59;;;;;;;3.90;3.50;;;;;;;;;;5076403;28;20455;-60
2023/12/20 03:28:26;;;;;;;4.10;3.80;;;;;;;;;;5076358;28;20860;-60
2023/12/20 03:30:54;;;;;;;4.93;4.50;;;;;;;;;;5076293;28;20916;-60
2023/12/20 03:33:21;;;;;;;4.90;4.40;;;;;;;;;;5076061;28;20510;-60
2023/12/20 03:35:48;;;;;;;4.40;4.10;;;;;;;;;;5076302;28;20536;-60
2023/12/20 03:38:15;;;;;;;5.37;4.97;;;;;;;;;;5076190;28;20447;-60
2023/12/20 03:40:42;;;;;;;5.23;4.83;;;;;;;;;;5076139;28;20535;-61
2023/12/20 03:43:09;;;;;;;4.63;4.23;;;;;;;;;;5075916;28;20939;-60
2023/12/20 03:45:36;;;;;;;4.80;4.40;;;;;;;;;;5076047;28;20542;-60
2023/12/20 03:48:04;;;;;;;6.40;3.93;;;;;;;;;;5075821;28;20535;-61
2023/12/20 03:50:31;;;;;;;4.63;4.20;;;;;;;;;;5075552;28;20953;-60
2023/12/20 03:52:58;;;;;;;5.07;3.60;;;;;;;;;;5075896;28;20475;-60
2023/12/20 03:55:25;;;;;;;4.30;3.90;;;;;;;;;;5075740;28;20549;-60
2023/12/20 03:57:52;;;;;;;5.00;3.60;;;;;;;;;;5075771;28;20538;-60
2023/12/20 04:00:19;;;;;;;4.40;3.73;;;;;;;;;;5075684;28;20526;-60
2023/12/20 04:02:46;;;;;;;4.20;3.80;;;;;;;;;;5075543;28;20530;-61
2023/12/20 04:05:14;;;;;;;5.90;2.87;;;;;;;;;;5075780;28;20439;-60
2023/12/20 04:07:41;;;;;;;4.93;3.23;;;;;;;;;;5075626;28;20897;-60
2023/12/20 04:10:09;;;;;;;4.13;2.37;;;;;;;;;;5075539;28;20534;-60
2023/12/20 04:12:35;;;;;;;3.77;2.97;;;;;;;;;;5075335;28;20482;-60
2023/12/20 04:15:08;;;;;;;3.40;2.67;;;;;;;;;;5074858;28;20471;-61
2023/12/20 04:17:35;;;;;;;4.83;2.80;;;;;;;;;;5075029;28;20443;-60
2023/12/20 04:20:02;;;;;;;4.73;2.23;;;;;;;;;;5075124;28;20482;-60
2023/12/20 04:22:31;;;;;;;5.70;2.53;;;;;;;;;;5074837;28;20798;-60
2023/12/20 04:24:58;;;;;;;4.53;2.10;;;;;;;;;;5074721;28;20592;-60
2023/12/20 04:27:25;;;;;;;3.77;2.30;;;;;;;;;;5074575;28;20538;-60
2023/12/20 04:29:52;;;;;;;2.87;2.00;;;;;;;;;;5074706;28;20497;-60
2023/12/20 04:32:18;;;;;;;5.47;3.00;;;;;;;;;;5074606;28;20446;-60
2023/12/20 04:34:45;;;;;;;5.50;2.00;;;;;;;;;;5074803;28;20534;-60
2023/12/20 04:37:13;;;;;;;2.57;2.30;;;;;;;;;;5074472;28;20501;-60
2023/12/20 04:39:41;;;;;;;2.67;1.90;;;;;;;;;;5074445;28;20806;-60
2023/12/20 04:42:08;;;;;;;8.07;2.23;;;;;;;;;;5074783;28;20819;-61
2023/12/20 04:44:35;;;;;;;3.10;2.43;;;;;;;;;;5075043;28;20530;-61
2023/12/20 04:47:03;;;;;;;3.57;2.40;;;;;;;;;;5074958;28;20440;-60
2023/12/20 04:49:29;;;;;;;3.37;2.37;;;;;;;;;;5074865;28;20443;-61
2023/12/20 04:51:56;;;;;;;5.97;2.20;;;;;;;;;;5074790;28;20898;-60
2023/12/20 04:54:23;;;;;;;4.10;2.83;;;;;;;;;;5074580;28;20489;-61
2023/12/20 04:56:52;;;;;;;4.90;2.10;;;;;;;;;;5074539;28;20534;-60
2023/12/20 04:59:19;;;;;;;4.73;2.43;;;;;;;;;;5074713;28;20535;-60
2023/12/20 05:01:46;;;;;;;4.67;2.30;;;;;;;;;;5074833;28;20475;-60
2023/12/20 05:04:13;;;;;;;5.57;2.53;;;;;;;;;;5074608;28;20554;-60
2023/12/20 05:06:40;;;;;;;8.30;2.10;;;;;;;;;;5074450;28;20808;-60
2023/12/20 05:09:07;;;;;;;2.50;1.63;;;;;;;;;;5074414;28;20526;-61
2023/12/20 05:11:33;;;;;;;4.77;2.60;;;;;;;;;;5074195;28;20543;-60
2023/12/20 05:14:02;;;;;;;5.57;2.00;;;;;;;;;;5074312;28;20483;-60
2023/12/20 05:16:29;;;;;;;6.27;2.40;;;;;;;;;;5074301;28;20444;-61
2023/12/20 05:18:56;;;;;;;3.20;2.40;;;;;;;;;;5074298;28;20543;-60
2023/12/20 05:21:23;;;;;;;6.80;2.73;;;;;;;;;;5074053;28;20779;-60
2023/12/20 05:23:49;;;;;;;8.13;2.93;;;;;;;;;;5073908;28;20530;-60
2023/12/20 05:26:16;;;;;;;8.80;3.30;;;;;;;;;;5074251;28;20443;-60
2023/12/20 05:28:43;;;;;;;3.53;3.03;;;;;;;;;;5074151;28;20788;-60
2023/12/20 05:31:12;;;;;;;8.57;2.80;;;;;;;;;;5074193;28;20534;-61
2023/12/20 05:33:38;;;;;;;3.10;2.67;;;;;;;;;;5073863;28;20475;-60
2023/12/20 05:36:09;;;;;;;4.13;2.50;;;;;;;;;;5073783;28;20509;-60
2023/12/20 05:38:35;;;;;;;6.13;3.40;;;;;;;;;;5073786;28;20451;-60
2023/12/20 05:41:03;;;;;;;5.33;2.40;;;;;;;;;;5073321;28;20450;-60
2023/12/20 05:43:30;;;;;;;3.90;2.40;;;;;;;;;;5073858;28;20443;-60
2023/12/20 05:45:57;;;;;;;10.43;2.20;;;;;;;;;;5073657;28;20450;-60
2023/12/20 05:48:26;;;;;;;2.93;1.93;;;;;;;;;;5073604;28;20455;-60
2023/12/20 05:50:53;;;;;;;3.30;2.30;;;;;;;;;;5073441;28;20483;-61
2023/12/20 05:53:20;;;;;;;7.50;4.60;;;;;;;;;;5073532;28;20481;-60
2023/12/20 05:55:47;;;;;;;2.63;1.73;;;;;;;;;;5073480;28;20471;-60
2023/12/20 05:58:13;;;;;;;4.10;1.93;;;;;;;;;;5073517;28;20538;-60
2023/12/20 06:00:40;;;;;;;8.40;2.70;;;;;;;;;;5073384;28;20447;-60
2023/12/20 06:03:07;;;;;;;5.47;2.33;;;;;;;;;;5073314;28;20453;-60
2023/12/20 06:05:36;;;;;;;11.70;2.40;;;;;;;;;;5073159;28;20450;-60
2023/12/20 06:08:02;;;;;;;5.20;2.17;;;;;;;;;;5073202;28;20534;-60
2023/12/20 06:10:29;;;;;;;4.77;2.30;;;;;;;;;;5073323;28;20521;-60
2023/12/20 06:12:58;;;;;;;5.63;1.53;;;;;;;;;;5073022;28;20878;-60
2023/12/20 06:15:25;;;;;;;3.80;1.90;;;;;;;;;;5073085;28;20500;-60
2023/12/20 06:17:52;;;;;;;5.77;2.03;;;;;;;;;;5073081;28;20530;-61
2023/12/20 06:20:19;;;;;;;4.03;1.77;;;;;;;;;;5072973;28;20515;-60
2023/12/20 06:22:47;;;;;;;3.10;1.70;;;;;;;;;;5073043;28;20450;-60
2023/12/20 06:25:14;;;;;;;5.03;1.70;;;;;;;;;;5073116;28;20458;-61
2023/12/20 06:27:41;;;;;;;5.27;2.00;;;;;;;;;;5073055;28;20880;-60
2023/12/20 06:30:09;;;;;;;1.80;1.50;;;;;;;;;;5072921;28;20881;-60
2023/12/20 06:32:37;;;;;;;9.10;1.63;;;;;;;;;;5072683;28;20807;-60
2023/12/20 06:35:05;;;;;;;7.87;1.83;;;;;;;;;;5073111;28;20479;-60
2023/12/20 06:37:32;;;;;;;2.13;1.20;;;;;;;;;;5072938;28;20531;-60
2023/12/20 06:40:00;;;;;;;3.43;1.90;;;;;;;;;;5072840;28;20565;-60
2023/12/20 06:42:27;;;;;;;4.10;1.30;;;;;;;;;;5072848;28;21053;-60
2023/12/20 06:44:54;;;;;;;4.30;1.40;;;;;;;;;;5072817;28;20920;-60
2023/12/20 06:47:21;;;;;;;4.67;1.47;;;;;;;;;;5072923;28;20444;-60
2023/12/20 06:49:48;;;;;;;5.90;1.90;;;;;;;;;;5072874;28;20439;-60
2023/12/20 06:52:15;;;;;;;7.50;1.90;;;;;;;;;;5073422;28;20443;-60
2023/12/20 06:54:41;;;;;;;6.57;2.20;;;;;;;;;;5076536;28;20491;-60
2023/12/20 06:57:10;;;;;;;7.90;2.37;;;;;;;;;;5076868;28;20538;-61
2023/12/20 06:59:39;;;;;;;7.00;3.30;;;;;;;;;;5076815;28;20455;-60
2023/12/20 07:02:07;;;;;;;4.70;2.50;;;;;;;;;;5076967;28;20443;-60
2023/12/20 07:04:33;;;;;;;10.40;2.50;;;;;;;;;;5076677;28;20542;-60
2023/12/20 07:07:00;;;;;;;7.70;1.70;;;;;;;;;;5076631;28;20454;-60
2023/12/20 07:09:27;;;;;;;5.47;1.83;;;;;;;;;;5076402;28;20977;-60
2023/12/20 07:11:54;;;;;;;3.47;1.73;;;;;;;;;;5076537;28;20542;-60
2023/12/20 07:14:23;;;;;;;8.27;1.67;;;;;;;;;;5076329;28;20570;-60
2023/12/20 07:16:50;;;;;;;3.80;1.73;;;;;;;;;;5076695;28;20451;-60
2023/12/20 07:19:16;;;;;;;3.53;1.80;;;;;;;;;;5076494;28;20531;-60
2023/12/20 07:21:43;;;;;;;3.23;1.80;;;;;;;;;;5076420;28;20443;-60
2023/12/20 07:24:10;;;;;;;4.80;2.30;;;;;;;;;;5076331;28;20546;-60
2023/12/20 07:26:38;;;;;;;1.77;1.67;;;;;;;;;;5076123;28;20803;-60
2023/12/20 07:29:06;;;;;;;4.13;1.87;;;;;;;;;;5075944;28;20833;-60
2023/12/20 07:31:34;;;;;;;9.67;1.73;;;;;;;;;;5076258;28;20447;-60
2023/12/20 07:34:01;;;;;;;5.97;2.17;;;;;;;;;;5076090;28;20487;-61
2023/12/20 07:36:28;;;;;;;6.47;2.23;;;;;;;;;;5076139;28;20493;-60
2023/12/20 07:38:55;;;;;;;4.57;2.63;;;;;;;;;;5075976;28;20478;-60
2023/12/20 07:41:23;;;;;;;8.57;2.50;;;;;;;;;;5075873;28;20447;-60
2023/12/20 07:43:51;;;;;;;12.73;4.70;;;;;;;;;;5076051;28;20447;-60
2023/12/20 07:46:18;;;;;;;5.40;1.83;;;;;;;;;;5076058;28;20572;-60
2023/12/20 07:48:47;;;;;;;10.10;2.30;;;;;;;;;;5075989;28;20449;-60
2023/12/20 07:51:14;;;;;;;5.57;2.10;;;;;;;;;;5076006;28;21053;-60
2023/12/20 07:53:40;;;;;;;5.07;1.83;;;;;;;;;;5075491;28;20550;-62
2023/12/20 07:56:15;;;;;;;4.90;2.30;;;;;;;;;;5075642;28;20467;-60
2023/12/20 07:58:42;;;;;;;7.83;2.30;;;;;;;;;;5074782;28;20447;-60
2023/12/20 08:01:09;;;;;;;3.10;1.97;;;;;;;;;;5075008;28;20447;-60
2023/12/20 08:03:36;;;;;;;6.80;2.27;;;;;;;;;;5074909;28;20443;-61
2023/12/20 08:06:04;;;;;;;3.63;1.90;;;;;;;;;;5075577;28;20528;-61
2023/12/20 08:08:32;;;;;;;5.10;2.67;;;;;;;;;;5075097;28;20538;-60
2023/12/20 08:11:00;;;;;;;4.13;2.63;;;;;;;;;;5075214;28;20802;-61
2023/12/20 08:13:27;;;;;;;5.93;2.00;;;;;;;;;;5075174;28;20508;-60
2023/12/20 08:15:55;;;;;;;3.87;2.07;;;;;;;;;;5075137;28;20505;-60
2023/12/20 08:18:22;;;;;;;7.10;2.33;;;;;;;;;;5074949;28;20486;-61
2023/12/20 08:20:49;;;;;;;6.20;2.33;;;;;;;;;;5075068;28;20455;-62
2023/12/20 08:23:18;;;;;;;4.63;2.70;;;;;;;;;;5075094;28;20476;-61
2023/12/20 08:25:45;;;;;;;8.70;2.60;;;;;;;;;;5075139;28;20526;-60
2023/12/20 08:28:12;;;;;;;3.07;2.30;;;;;;;;;;5075027;28;20443;-60
2023/12/20 08:30:40;;;;;;;6.63;2.93;;;;;;;;;;5074931;28;20531;-59
2023/12/20 08:33:11;;;;;;;5.10;2.33;;;;;;;;;;5074976;28;20881;-61
2023/12/20 08:35:38;;;;;;;6.67;2.70;;;;;;;;;;5074713;28;20518;-63
2023/12/20 08:38:05;;;;;;;3.73;1.90;;;;;;;;;;5074950;28;20769;-62
2023/12/20 08:40:33;;;;;;;2.40;1.50;;;;;;;;;;5074881;28;20447;-58
2023/12/20 08:43:00;;;;;;;4.30;1.70;;;;;;;;;;5074766;28;20444;-61
2023/12/20 08:45:27;;;;;;;4.67;1.70;;;;;;;;;;5074613;28;20554;-59
2023/12/20 08:47:54;;;;;;;8.77;1.83;;;;;;;;;;5074911;28;21018;-59
2023/12/20 08:50:21;;;;;;;12.40;1.97;;;;;;;;;;5074452;28;20448;-61
2023/12/20 08:52:48;;;;;;;9.83;2.20;;;;;;;;;;5074711;28;20451;-60
2023/12/20 08:55:16;;;;;;;6.03;2.00;;;;;;;;;;5074376;28;20804;-60
2023/12/20 08:57:44;;;;;;;3.87;1.70;;;;;;;;;;5074609;28;20447;-61
2023/12/20 09:00:12;;;;;;;7.23;1.90;;;;;;;;;;5074310;28;20527;-61
2023/12/20 09:02:39;;;;;;;4.57;2.20;;;;;;;;;;5074257;28;20531;-61
2023/12/20 09:05:06;;;;;;;6.97;2.60;;;;;;;;;;5074401;28;20953;-61
2023/12/20 09:07:33;;;;;;;10.30;2.60;;;;;;;;;;5074615;28;20451;-61
2023/12/20 09:10:00;;;;;;;5.93;2.20;;;;;;;;;;5074274;28;20447;-61
2023/12/20 09:12:27;;;;;;;5.57;1.80;;;;;;;;;;5074340;28;20439;-61
2023/12/20 09:14:55;;;;;;;4.80;1.83;;;;;;;;;;5073155;28;20482;-61
2023/12/20 09:17:23;;;;;;;2.40;1.77;;;;;;;;;;5073879;28;20470;-62
2023/12/20 09:19:52;;;;;;;11.00;2.20;;;;;;;;;;5074150;28;20841;-61
2023/12/20 09:22:19;;;;;;;8.50;2.37;;;;;;;;;;5074049;28;20444;-62
2023/12/20 09:24:46;;;;;;;4.13;2.20;;;;;;;;;;5073967;28;20447;-62
2023/12/20 09:27:13;;;;;;;7.67;2.67;;;;;;;;;;5073820;28;20488;-61
2023/12/20 09:29:40;;;;;;;3.97;2.00;;;;;;;;;;5073743;28;20538;-62
2023/12/20 09:32:08;;;;;;;1.60;1.23;;;;;;;;;;5073760;28;20531;-60
2023/12/20 09:34:37;;;;;;;1.20;1.00;;;;;;;;;;5073790;28;20479;-59
2023/12/20 09:37:04;;;;;;;12.90;2.73;;;;;;;;;;5073927;28;20450;-59
2023/12/20 09:39:31;;;;;;;5.63;2.20;;;;;;;;;;5072584;28;20917;-61
2023/12/20 09:42:01;;;;;;;3.83;2.37;;;;;;;;;;5073435;28;20561;-63
2023/12/20 09:44:28;;;;;;;5.83;1.77;;;;;;;;;;5062484;28;20787;-62
2023/12/20 09:46:56;;;;;;;3.90;2.33;;;;;;;;;;5072734;28;20447;-63
2023/12/20 09:49:25;;;;;;;6.63;2.43;;;;;;;;;;5073316;28;20946;-62
2023/12/20 09:51:52;;;;;;;4.93;2.13;;;;;;;;;;5073429;28;20534;-63
2023/12/20 09:54:19;;;;;;;7.20;2.42;;;;;;;;;;5072894;28;20449;-62
2023/12/20 09:56:47;;;;;;;3.47;2.47;;;;;;;;;;5073144;28;20217;-61
2023/12/20 09:59:14;;;;;;;8.93;2.67;;;;;;;;;;5072688;28;20860;-61
2023/12/20 10:01:41;;;;;;;8.80;2.07;;;;;;;;;;5073345;28;20207;-62
2023/12/20 10:04:12;;;;;;;2.40;1.63;;;;;;;;;;5073304;28;20451;-62
2023/12/20 10:06:40;;;;;;;4.53;1.80;;;;;;;;;;5073078;28;20453;-61
2023/12/20 10:09:08;;;;;;;3.83;2.40;;;;;;;;;;5073060;28;20446;-62
2023/12/20 10:11:37;;;;;;;5.17;1.90;;;;;;;;;;5073252;28;20815;-62
2023/12/20 10:14:04;;;;;;;8.53;1.50;;;;;;;;;;5072775;28;20958;-62
2023/12/20 10:16:31;;;;;;;5.53;2.23;;;;;;;;;;5073017;28;20444;-64
2023/12/20 10:18:58;;;;;;;3.23;1.97;;;;;;;;;;5073034;28;20538;-63
2023/12/20 10:21:26;;;;;;;2.63;1.40;;;;;;;;;;5072797;28;20875;-63
2023/12/20 10:23:55;;;;;;;7.60;1.73;;;;;;;;;;5072840;28;20451;-63
2023/12/20 10:26:22;;;;;;;10.13;1.60;;;;;;;;;;5072925;28;20475;-60
2023/12/20 10:28:52;;;;;;;3.60;1.63;;;;;;;;;;5073168;28;21004;-61
2023/12/20 10:31:29;;;;;;;6.57;1.60;;;;;;;;;;5072906;28;20447;-63
2023/12/20 10:33:57;;;;;;;3.10;1.50;;;;;;;;;;5072946;28;20449;-63
2023/12/20 10:36:26;;;;;;;3.10;1.70;;;;;;;;;;5072624;28;20902;-64
2023/12/20 10:38:55;;;;;;;5.73;2.37;;;;;;;;;;5072846;28;20444;-62
2023/12/20 10:41:26;;;;;;;2.50;1.53;;;;;;;;;;5072980;28;20493;-63
2023/12/20 10:43:53;;;;;;;7.23;2.10;;;;;;;;;;5072822;28;20853;-66
2023/12/20 10:46:20;;;;;;;6.53;2.10;;;;;;;;;;5072462;28;20449;-62
2023/12/20 10:48:48;;;;;;;8.97;1.93;;;;;;;;;;5071856;28;20997;-61
2023/12/20 10:51:16;;;;;;;4.63;1.67;;;;;;;;;;5073018;28;20535;-63
2023/12/20 10:53:43;;;;;;;9.10;1.97;;;;;;;;;;5072618;28;20534;-62
2023/12/20 10:56:14;;;;;;;6.97;2.27;;;;;;;;;;5072360;28;20497;-63
2023/12/20 10:58:43;;;;;;;4.83;1.77;;;;;;;;;;5072716;28;20534;-61
2023/12/20 11:01:10;;;;;;;3.50;1.30;;;;;;;;;;5072548;28;20451;-66
2023/12/20 11:03:38;;;;;;;6.83;2.37;;;;;;;;;;5072487;28;20444;-63
2023/12/20 11:06:08;;;;;;;5.80;2.13;;;;;;;;;;5072565;28;20847;-64
2023/12/20 11:08:37;;;;;;;3.23;1.80;;;;;;;;;;5072481;28;20440;-63
2023/12/20 11:11:06;;;;;;;2.87;2.03;;;;;;;;;;5072609;28;20539;-64
2023/12/20 11:13:37;;;;;;;4.53;2.10;;;;;;;;;;5072374;28;20443;-62
2023/12/20 11:16:04;;;;;;;6.67;2.33;;;;;;;;;;5072174;28;20475;-62
2023/12/20 11:18:31;;;;;;;10.00;2.20;;;;;;;;;;5072557;28;20885;-64
2023/12/20 11:21:02;;;;;;;7.70;1.80;;;;;;;;;;5072138;28;20534;-62
2023/12/20 11:23:30;;;;;;;3.23;1.77;;;;;;;;;;5072482;28;20823;-62
2023/12/20 11:25:59;;;;;;;2.90;2.00;;;;;;;;;;5072351;28;20439;-64
2023/12/20 11:28:27;;;;;;;7.20;2.10;;;;;;;;;;5072139;28;20439;-63
2023/12/20 11:30:56;;;;;;;6.07;1.90;;;;;;;;;;5072634;28;20443;-63
2023/12/20 11:33:23;;;;;;;9.40;2.57;;;;;;;;;;5072395;28;20472;-62
2023/12/20 11:35:50;;;;;;;5.20;1.87;;;;;;;;;;5072208;28;20583;-63
2023/12/20 11:38:17;;;;;;;5.53;2.30;;;;;;;;;;5072825;28;20443;-64
2023/12/20 11:40:45;;;;;;;5.47;1.67;;;;;;;;;;5075691;28;20534;-63
2023/12/20 11:43:12;;;;;;;5.00;2.40;;;;;;;;;;5075658;28;20808;-63
2023/12/20 11:45:39;;;;;;;8.20;1.80;;;;;;;;;;5075834;28;20506;-62
2023/12/20 11:48:07;;;;;;;5.30;1.90;;;;;;;;;;5075298;28;20447;-62
2023/12/20 11:50:34;;;;;;;3.77;1.70;;;;;;;;;;5075822;28;20450;-62
2023/12/20 11:53:01;;;;;;;4.73;2.07;;;;;;;;;;5075638;28;20511;-62
2023/12/20 11:55:28;;;;;;;3.40;1.63;;;;;;;;;;5075426;28;20519;-63
2023/12/20 11:57:55;;;;;;;8.03;2.50;;;;;;;;;;5075748;28;20447;-64
2023/12/20 12:00:22;;;;;;;4.27;1.87;;;;;;;;;;5075652;28;20475;-65
2023/12/20 12:02:59;;;;;;;5.80;1.80;;;;;;;;;;5075530;28;20450;-65
2023/12/20 12:05:27;;;;;;;4.40;1.80;;;;;;;;;;5075420;28;20471;-64
2023/12/20 12:07:54;;;;;;;6.87;2.20;;;;;;;;;;5075103;28;20554;-65
2023/12/20 12:10:21;;;;;;;2.23;1.57;;;;;;;;;;5075582;28;20450;-61
2023/12/20 12:12:48;;;;;;;9.30;2.40;;;;;;;;;;5075418;28;20451;-61
2023/12/20 12:15:16;;;;;;;7.60;1.77;;;;;;;;;;5075330;28;20489;-61
2023/12/20 12:17:43;;;;;;;3.00;2.03;;;;;;;;;;5075242;28;20885;-61
2023/12/20 12:20:10;;;;;;;5.77;2.77;;;;;;;;;;5075218;28;20854;-65
2023/12/20 12:22:39;;;;;;;6.57;1.73;;;;;;;;;;5075119;28;20450;-62
2023/12/20 12:25:12;;;;;;;6.47;1.63;;;;;;;;;;5075177;28;20836;-62
2023/12/20 12:27:41;;;;;;;3.73;1.50;;;;;;;;;;5075130;28;20845;-62
2023/12/20 12:30:09;;;;;;;8.10;1.93;;;;;;;;;;5075017;28;20957;-62
2023/12/20 12:32:36;;;;;;;3.17;1.80;;;;;;;;;;5074916;28;20527;-64
2023/12/20 12:35:06;;;;;;;3.20;1.50;;;;;;;;;;5074764;28;20893;-61
2023/12/20 12:37:33;;;;;;;2.73;1.63;;;;;;;;;;5074806;28;20493;-61
2023/12/20 12:40:01;;;;;;;4.20;1.87;;;;;;;;;;5074907;28;20451;-62
2023/12/20 12:42:28;;;;;;;4.30;1.40;;;;;;;;;;5074582;28;20799;-62
2023/12/20 12:44:56;;;;;;;3.00;1.90;;;;;;;;;;5074745;28;20468;-62
2023/12/20 12:47:23;;;;;;;2.03;1.40;;;;;;;;;;5074254;28;20470;-59
2023/12/20 12:49:51;;;;;;;3.40;1.57;;;;;;;;;;5074805;28;20475;-63
2023/12/20 12:52:17;;;;;;;5.93;2.13;;;;;;;;;;5075086;28;20546;-61
2023/12/20 12:54:44;;;;;;;8.83;2.60;;;;;;;;;;5074265;28;20532;-62
2023/12/20 12:57:13;;;;;;;4.33;1.77;;;;;;;;;;5074355;28;20575;-62
2023/12/20 12:59:41;;;;;;;7.53;2.10;;;;;;;;;;5074679;28;20546;-62
2023/12/20 13:02:08;;;;;;;3.23;2.03;;;;;;;;;;5074454;28;20834;-61
2023/12/20 13:04:34;;;;;;;11.53;1.90;;;;;;;;;;5074153;28;20501;-60
2023/12/20 13:07:01;;;;;;;3.30;2.03;;;;;;;;;;5074011;28;20962;-61
2023/12/20 13:09:28;;;;;;;5.43;2.27;;;;;;;;;;5074080;28;20538;-64
2023/12/20 13:11:55;;;;;;;7.73;2.80;;;;;;;;;;5074080;28;20538;-63
2023/12/20 13:14:24;;;;;;;3.90;2.73;;;;;;;;;;5074256;28;20497;-63
2023/12/20 13:16:50;;;;;;;5.10;2.27;;;;;;;;;;5073828;28;20479;-62
2023/12/20 13:19:17;;;;;;;5.23;2.27;;;;;;;;;;5074177;28;20443;-62
2023/12/20 13:21:44;;;;;;;6.33;2.70;;;;;;;;;;5073891;28;20538;-61
2023/12/20 13:24:11;;;;;;;4.07;2.60;;;;;;;;;;5073915;28;20532;-60
2023/12/20 13:26:39;;;;;;;2.90;2.13;;;;;;;;;;5073867;28;21006;-60
2023/12/20 13:29:06;;;;;;;11.73;2.50;;;;;;;;;;5073845;28;20447;-62
2023/12/20 13:31:36;;;;;;;8.30;2.60;;;;;;;;;;5073763;28;20543;-60
2023/12/20 13:34:03;;;;;;;6.47;3.40;;;;;;;;;;5073779;28;20542;-61
2023/12/20 13:36:30;;;;;;;4.30;2.70;;;;;;;;;;5073983;28;20479;-62
2023/12/20 13:38:57;;;;;;;4.13;2.60;;;;;;;;;;5073661;28;20454;-61
2023/12/20 13:41:24;;;;;;;7.67;2.43;;;;;;;;;;5073881;28;20444;-62
2023/12/20 13:43:51;;;;;;;3.27;2.47;;;;;;;;;;5073403;28;20447;-61
2023/12/20 13:46:18;;;;;;;4.13;2.50;;;;;;;;;;5072711;28;20530;-61
2023/12/20 13:48:46;;;;;;;8.73;2.60;;;;;;;;;;5073553;28;20454;-60
2023/12/20 13:51:13;;;;;;;2.40;1.63;;;;;;;;;;5073700;28;20893;-64
2023/12/20 13:53:40;;;;;;;3.90;2.10;;;;;;;;;;5073252;28;20534;-61
2023/12/20 13:56:07;;;;;;;3.00;2.30;;;;;;;;;;5073009;28;20483;-59
2023/12/20 13:58:34;;;;;;;1.80;1.50;;;;;;;;;;5073066;28;20505;-60
2023/12/20 14:01:01;;;;;;;3.53;2.07;;;;;;;;;;5073025;28;20530;-60
2023/12/20 14:03:28;;;;;;;3.10;1.60;;;;;;;;;;5073556;28;20845;-60
2023/12/20 14:05:56;;;;;;;5.03;2.13;;;;;;;;;;5073214;28;20540;-60
2023/12/20 14:08:23;;;;;;;3.13;1.90;;;;;;;;;;5073675;28;20455;-60
2023/12/20 14:10:51;;;;;;;5.97;1.60;;;;;;;;;;5073201;28;20863;-60
2023/12/20 14:13:17;;;;;;;1.30;1.20;;;;;;;;;;5073154;28;20443;-60
2023/12/20 14:15:46;;;;;;;2.27;1.00;;;;;;;;;;5073110;28;20467;-60
2023/12/20 14:18:14;;;;;;;1.20;1.07;;;;;;;;;;5073177;28;20509;-60
2023/12/20 14:20:42;;;;;;;1.67;1.13;;;;;;;;;;5073021;28;20446;-60
2023/12/20 14:23:10;;;;;;;1.37;1.17;;;;;;;;;;5072622;28;20439;-60
2023/12/20 14:25:37;;;;;;;2.93;2.00;;;;;;;;;;5072252;28;20943;-60
2023/12/20 14:28:05;;;;;;;3.63;1.90;;;;;;;;;;5072578;28;20455;-60
2023/12/20 14:30:32;;;;;;;2.90;2.20;;;;;;;;;;5073200;28;20534;-60
2023/12/20 14:32:59;;;;;;;2.60;1.93;;;;;;;;;;5072916;28;20483;-61
2023/12/20 14:35:26;;;;;;;1.67;1.40;;;;;;;;;;5072536;28;20538;-60
2023/12/20 14:37:53;;;;;;;1.50;1.40;;;;;;;;;;5072734;28;20448;-61
2023/12/20 14:40:21;;;;;;;2.20;2.00;;;;;;;;;;5072956;28;20530;-60
2023/12/20 14:42:48;;;;;;;2.10;1.40;;;;;;;;;;5072856;28;20882;-60
2023/12/20 14:45:16;;;;;;;2.00;1.90;;;;;;;;;;5072965;28;20535;-60